Time;durP1;ratioP1;P1;durP2;ratioP2;P2;SDS_P1;SDS_P2;PMS_P1;PMS_P2;Temp;Humidity;BMP_temperature;BMP_pressure;BME280_temperature;BME280_humidity;BME280_pressure;Samples;Min_cycle;Max_cycle;Signal;HPM_P1;HPM_P2
2021/12/29 00:00:13;;;;;;;488.95;269.17;;;5.10;99.90;;;;;;5055648;28;20071;-80
2021/12/29 00:02:41;;;;;;;448.85;250.63;;;5.20;99.90;;;;;;5057732;28;20132;-79
2021/12/29 00:05:09;;;;;;;442.05;251.23;;;5.10;99.90;;;;;;5053035;28;20551;-81
2021/12/29 00:07:37;;;;;;;464.83;267.27;;;5.20;99.90;;;;;;5053562;28;20511;-81
2021/12/29 00:10:05;;;;;;;485.35;283.13;;;5.20;99.90;;;;;;5054582;28;20044;-81
2021/12/29 00:12:40;;;;;;;441.10;255.68;;;5.30;99.90;;;;;;5054921;28;20045;-81
2021/12/29 00:15:08;;;;;;;472.85;273.77;;;5.20;99.90;;;;;;5070446;28;20422;-80
2021/12/29 00:17:42;;;;;;;452.63;264.90;;;5.20;1.00;;;;;;5055128;28;20048;-80
2021/12/29 00:20:14;;;;;;;467.60;267.58;;;5.20;1.00;;;;;;5061010;28;20392;-82
2021/12/29 00:22:42;;;;;;;417.80;245.40;;;5.20;1.00;;;;;;5077833;28;20090;-82
2021/12/29 00:25:10;;;;;;;406.02;233.98;;;5.20;1.00;;;;;;5077535;28;20116;-82
2021/12/29 00:27:38;;;;;;;374.92;217.25;;;5.20;1.00;;;;;;5063796;28;20056;-82
2021/12/29 00:30:08;;;;;;;403.63;229.00;;;5.20;51.70;;;;;;5057514;28;20041;-84
2021/12/29 00:32:55;;;;;;;452.60;255.27;;;5.20;99.90;;;;;;5055980;28;20059;-83
2021/12/29 00:35:42;;;;;;;396.30;222.88;;;5.20;99.90;;;;;;5055214;28;20531;-81
2021/12/29 00:38:28;;;;;;;409.70;226.93;;;5.20;99.90;;;;;;5054693;28;20098;-82
2021/12/29 00:41:15;;;;;;;398.08;225.23;;;5.20;99.90;;;;;;5059669;28;20055;-82
2021/12/29 00:44:02;;;;;;;371.75;210.82;;;5.30;99.90;;;;;;5054448;28;20041;-81
2021/12/29 00:46:42;;;;;;;365.45;204.77;;;5.30;99.90;;;;;;5054569;28;20147;-80
2021/12/29 00:49:12;;;;;;;345.95;197.77;;;5.30;99.90;;;;;;5070412;28;20045;-81
2021/12/29 00:51:39;;;;;;;352.90;202.35;;;5.40;99.90;;;;;;5058223;28;20044;-80
2021/12/29 00:54:07;;;;;;;363.63;203.15;;;5.40;99.90;;;;;;5074600;28;20399;-81
2021/12/29 00:56:34;;;;;;;353.13;202.48;;;5.40;99.90;;;;;;5074881;28;20063;-82
2021/12/29 00:59:02;;;;;;;351.42;200.77;;;5.40;99.90;;;;;;5074180;28;20043;-81
2021/12/29 01:01:30;;;;;;;329.92;186.65;;;5.40;99.90;;;;;;5077184;28;20074;-79
2021/12/29 01:03:57;;;;;;;332.45;190.27;;;5.50;99.90;;;;;;5070259;28;20070;-82
2021/12/29 01:06:26;;;;;;;294.30;169.48;;;5.50;99.90;;;;;;5074392;28;20061;-82
2021/12/29 01:08:53;;;;;;;278.13;152.55;;;5.50;99.90;;;;;;5056892;28;20098;-81
2021/12/29 01:11:22;;;;;;;271.92;154.77;;;5.40;99.90;;;;;;5072259;28;20548;-81
2021/12/29 01:13:50;;;;;;;264.70;146.35;;;5.40;99.90;;;;;;5083962;28;20051;-82
2021/12/29 01:19:01;;;;;;;186.93;103.60;;;5.40;1.00;;;;;;5097966;28;20067;-81
2021/12/29 01:21:31;;;;;;;203.65;115.82;;;5.50;1.00;;;;;;5084076;28;20107;-83
2021/12/29 01:23:59;;;;;;;249.40;139.50;;;5.50;1.00;;;;;;5083309;28;20040;-83
2021/12/29 01:26:26;;;;;;;224.55;127.20;;;5.40;1.00;;;;;;5073997;28;20083;-82
2021/12/29 01:28:54;;;;;;;225.88;126.63;;;5.40;1.00;;;;;;5094391;28;20035;-82
2021/12/29 01:31:21;;;;;;;248.85;140.68;;;5.50;1.00;;;;;;5077410;28;20044;-82
2021/12/29 01:33:49;;;;;;;262.23;145.75;;;5.50;1.00;;;;;;5041934;28;20132;-82
2021/12/29 01:36:17;;;;;;;268.70;149.35;;;5.60;1.00;;;;;;5040252;28;20076;-82
2021/12/29 01:38:46;;;;;;;241.55;135.38;;;5.70;1.00;;;;;;5040017;28;20037;-82
2021/12/29 01:41:13;;;;;;;223.65;129.45;;;5.70;1.00;;;;;;5058004;28;20105;-81
2021/12/29 01:43:40;;;;;;;253.20;139.93;;;5.70;1.00;;;;;;5057543;28;20148;-82
2021/12/29 01:46:08;;;;;;;228.10;132.23;;;5.80;99.90;;;;;;5058394;28;20045;-82
2021/12/29 01:48:35;;;;;;;249.07;141.73;;;5.80;99.90;;;;;;5076795;28;20506;-81
2021/12/29 01:51:03;;;;;;;250.82;141.32;;;5.70;99.90;;;;;;5059836;28;20509;-79
2021/12/29 01:53:33;;;;;;;263.80;148.02;;;5.80;99.90;;;;;;5133964;22;20037;-84
2021/12/29 01:56:02;;;;;;;238.45;135.30;;;5.80;99.90;;;;;;5103643;28;20142;-83
2021/12/29 01:58:30;;;;;;;228.93;131.77;;;5.90;99.90;;;;;;5081117;28;20084;-83
2021/12/29 02:00:59;;;;;;;245.18;135.93;;;5.90;99.90;;;;;;5091347;28;20016;-83
2021/12/29 02:03:28;;;;;;;243.75;138.52;;;6.00;76.90;;;;;;5097640;28;20072;-84
2021/12/29 02:05:55;;;;;;;242.80;139.70;;;6.00;1.00;;;;;;5102191;28;20075;-81
2021/12/29 02:08:24;;;;;;;248.05;142.07;;;6.10;1.00;;;;;;5100018;28;20042;-82
2021/12/29 02:10:53;;;;;;;254.68;143.32;;;6.10;1.00;;;;;;5101046;28;20066;-84
2021/12/29 02:13:23;;;;;;;258.23;148.32;;;6.10;1.00;;;;;;5084277;28;20060;-83
2021/12/29 02:15:50;;;;;;;260.40;148.48;;;6.10;1.00;;;;;;5104014;28;20105;-83
2021/12/29 02:18:20;;;;;;;268.02;150.18;;;6.10;1.00;;;;;;5102356;28;20426;-84
2021/12/29 02:20:53;;;;;;;236.73;138.43;;;6.10;1.00;;;;;;5082382;28;20047;-84
2021/12/29 02:23:27;;;;;;;248.45;142.07;;;6.20;1.00;;;;;;5100954;28;20055;-84
2021/12/29 02:25:57;;;;;;;279.23;162.30;;;6.20;1.00;;;;;;5100241;28;20071;-83
2021/12/29 02:28:28;;;;;;;290.00;170.05;;;6.10;1.00;;;;;;5082001;28;20453;-84
2021/12/29 02:30:58;;;;;;;283.92;162.23;;;6.10;1.00;;;;;;5082722;28;20109;-85
2021/12/29 02:33:26;;;;;;;299.45;171.85;;;6.20;1.00;;;;;;5082328;28;20162;-86
2021/12/29 02:35:55;;;;;;;268.00;157.40;;;6.20;1.00;;;;;;5100230;28;20075;-84
2021/12/29 02:38:25;;;;;;;264.17;153.27;;;6.20;1.00;;;;;;5077901;28;20076;-83
2021/12/29 02:40:55;;;;;;;290.17;172.63;;;6.30;1.00;;;;;;5098597;28;20044;-85
2021/12/29 02:43:24;;;;;;;266.50;151.40;;;6.30;1.00;;;;;;5098408;28;20101;-83
2021/12/29 02:45:58;;;;;;;280.48;158.68;;;6.30;1.00;;;;;;5099595;28;20051;-84
2021/12/29 02:48:27;;;;;;;282.95;162.77;;;6.30;1.00;;;;;;5100736;28;20040;-86
2021/12/29 02:50:58;;;;;;;268.67;156.35;;;6.30;1.00;;;;;;5115319;28;20031;-81
2021/12/29 02:53:26;;;;;;;279.40;160.80;;;6.30;1.00;;;;;;5120146;28;20040;-84
2021/12/29 02:55:55;;;;;;;292.70;164.27;;;6.20;1.00;;;;;;5077487;28;20075;-85
2021/12/29 02:58:24;;;;;;;288.45;166.55;;;6.30;70.40;;;;;;5077658;28;20139;-83
2021/12/29 03:00:53;;;;;;;283.20;168.20;;;6.30;99.90;;;;;;5076997;28;20107;-83
2021/12/29 03:03:22;;;;;;;280.70;165.75;;;6.30;99.90;;;;;;5080151;28;20048;-82
2021/12/29 03:05:50;;;;;;;270.05;153.50;;;6.40;99.90;;;;;;5078333;28;20103;-81
2021/12/29 03:08:20;;;;;;;252.88;148.65;;;6.40;1.00;;;;;;5078634;28;20111;-81
2021/12/29 03:10:52;;;;;;;246.50;143.63;;;6.40;1.00;;;;;;5062014;28;20135;-82
2021/12/29 03:13:20;;;;;;;248.32;144.43;;;6.50;1.00;;;;;;5059730;28;20224;-81
2021/12/29 03:15:48;;;;;;;256.25;147.38;;;6.50;1.00;;;;;;5075828;28;20052;-82
2021/12/29 03:18:15;;;;;;;254.45;144.85;;;6.50;18.60;;;;;;5059013;28;20037;-84
2021/12/29 03:20:46;;;;;;;263.13;150.32;;;6.50;99.90;;;;;;5078559;28;20123;-84
2021/12/29 03:23:14;;;;;;;243.73;141.40;;;6.50;99.90;;;;;;5092532;28;20040;-84
2021/12/29 03:25:43;;;;;;;251.63;144.35;;;6.50;1.00;;;;;;5098198;28;20040;-82
2021/12/29 03:28:12;;;;;;;248.75;146.48;;;6.50;99.90;;;;;;5080630;28;20043;-82
2021/12/29 03:30:41;;;;;;;269.25;153.73;;;6.60;99.90;;;;;;5079632;28;20414;-82
2021/12/29 03:33:09;;;;;;;271.08;156.27;;;6.60;1.00;;;;;;5098394;28;20055;-81
2021/12/29 03:35:39;;;;;;;265.25;151.38;;;6.60;1.00;;;;;;5097315;28;20406;-84
2021/12/29 03:38:09;;;;;;;256.65;152.70;;;6.60;1.00;;;;;;5097233;28;20131;-83
2021/12/29 03:40:40;;;;;;;249.57;149.63;;;6.60;68.80;;;;;;5095682;28;20501;-80
2021/12/29 03:43:10;;;;;;;258.95;152.15;;;6.60;23.10;;;;;;5095326;28;20044;-82
2021/12/29 03:45:39;;;;;;;263.27;154.57;;;6.60;99.90;;;;;;5097231;28;20438;-82
2021/12/29 03:48:07;;;;;;;270.10;159.88;;;6.60;1.00;;;;;;5097338;28;20090;-82
2021/12/29 03:50:35;;;;;;;259.30;152.50;;;6.60;99.90;;;;;;5095692;28;20111;-80
2021/12/29 03:53:04;;;;;;;269.33;157.55;;;6.60;99.90;;;;;;5096418;28;20113;-83
2021/12/29 03:55:32;;;;;;;280.35;165.82;;;6.60;1.00;;;;;;5077914;28;20414;-83
2021/12/29 03:58:00;;;;;;;280.42;166.70;;;6.60;1.00;;;;;;5097674;28;20438;-83
2021/12/29 04:00:29;;;;;;;278.15;166.98;;;6.70;1.00;;;;;;5094120;28;20110;-82
2021/12/29 04:02:56;;;;;;;276.15;165.15;;;6.70;1.00;;;;;;5071814;28;20549;-81
2021/12/29 04:05:25;;;;;;;259.90;152.73;;;6.70;1.00;;;;;;5099116;28;20043;-81
2021/12/29 04:07:55;;;;;;;251.20;146.15;;;6.70;99.90;;;;;;5096472;28;20040;-80
2021/12/29 04:10:24;;;;;;;215.00;130.65;;;6.70;1.00;;;;;;5095616;28;20044;-80
2021/12/29 04:12:52;;;;;;;211.10;125.90;;;6.70;99.90;;;;;;5075435;28;20044;-80
2021/12/29 04:15:20;;;;;;;197.82;118.57;;;6.70;99.90;;;;;;5059991;28;20514;-82
2021/12/29 04:17:51;;;;;;;235.98;137.70;;;6.80;1.00;;;;;;5075778;28;20063;-82
2021/12/29 04:23:09;;;;;;;252.30;147.55;;;6.80;99.90;;;;;;5084418;28;20040;-82
2021/12/29 04:25:38;;;;;;;249.10;146.15;;;6.80;1.00;;;;;;5075110;28;20419;-82
2021/12/29 04:28:09;;;;;;;259.00;154.77;;;6.80;1.00;;;;;;5084683;28;20488;-80
2021/12/29 04:30:37;;;;;;;250.00;148.60;;;6.80;1.00;;;;;;5064776;28;20106;-83
2021/12/29 04:33:06;;;;;;;251.50;148.73;;;6.80;1.00;;;;;;5074523;28;20045;-82
2021/12/29 04:35:33;;;;;;;240.20;140.30;;;6.90;1.00;;;;;;5079692;28;20094;-80
2021/12/29 04:38:01;;;;;;;236.18;138.60;;;6.90;1.00;;;;;;5090857;28;20040;-81
2021/12/29 04:40:28;;;;;;;244.25;143.00;;;6.90;1.00;;;;;;5077465;28;20040;-83
2021/12/29 04:42:56;;;;;;;235.82;141.52;;;6.90;1.00;;;;;;5096873;28;20052;-82
2021/12/29 04:45:24;;;;;;;231.25;136.93;;;7.00;1.00;;;;;;5093373;28;20461;-81
2021/12/29 04:47:51;;;;;;;232.55;137.15;;;7.00;1.00;;;;;;5100138;28;20040;-81
2021/12/29 04:50:27;;;;;;;222.02;132.85;;;7.00;99.90;;;;;;5097469;28;20044;-82
2021/12/29 04:52:56;;;;;;;206.68;125.22;;;7.00;99.90;;;;;;5097236;28;20048;-82
2021/12/29 04:55:28;;;;;;;199.35;119.53;;;7.00;1.00;;;;;;5079203;28;20064;-81
2021/12/29 04:57:56;;;;;;;260.52;152.38;;;7.00;1.00;;;;;;5078961;28;20035;-81
2021/12/29 05:00:25;;;;;;;260.60;154.85;;;7.00;1.00;;;;;;5079076;28;20053;-82
2021/12/29 05:02:55;;;;;;;241.10;145.02;;;7.00;99.90;;;;;;5080700;28;20037;-83
2021/12/29 05:05:39;;;;;;;249.10;146.15;;;7.00;99.90;;;;;;5076925;28;20055;-82
2021/12/29 05:08:25;;;;;;;266.13;159.30;;;7.00;99.90;;;;;;5045403;28;20051;-82
2021/12/29 05:10:57;;;;;;;266.00;160.30;;;7.00;99.90;;;;;;5081706;28;20070;-83
2021/12/29 05:13:26;;;;;;;258.85;154.70;;;7.00;99.90;;;;;;5060142;28;20053;-81
2021/12/29 05:15:55;;;;;;;268.58;157.70;;;7.00;99.90;;;;;;5055067;28;20045;-82
2021/12/29 05:18:23;;;;;;;266.38;154.50;;;7.00;99.90;;;;;;5070546;28;20048;-82
2021/12/29 05:20:53;;;;;;;249.80;149.02;;;7.00;99.90;;;;;;5091407;28;20067;-81
2021/12/29 05:23:20;;;;;;;244.10;146.27;;;7.00;99.90;;;;;;5109763;28;20040;-82
2021/12/29 05:25:49;;;;;;;231.50;140.93;;;7.00;99.90;;;;;;5073668;28;20053;-83
2021/12/29 05:28:18;;;;;;;212.98;128.65;;;7.10;99.90;;;;;;5087800;28;20067;-82
2021/12/29 05:30:47;;;;;;;187.20;112.90;;;7.10;99.90;;;;;;5082289;28;20040;-81
2021/12/29 05:33:15;;;;;;;211.30;126.78;;;7.10;1.00;;;;;;5070286;28;20041;-82
2021/12/29 05:35:43;;;;;;;231.55;136.98;;;7.10;1.00;;;;;;5080710;28;20037;-80
2021/12/29 05:38:12;;;;;;;225.88;135.73;;;7.00;1.00;;;;;;5082365;28;20053;-80
2021/12/29 05:40:39;;;;;;;235.35;141.57;;;7.10;11.80;;;;;;5082130;28;20073;-83
2021/12/29 05:43:07;;;;;;;220.55;138.43;;;7.00;1.00;;;;;;5063894;28;20071;-82
2021/12/29 05:45:35;;;;;;;234.10;144.05;;;7.00;1.00;;;;;;5063885;28;20139;-81
2021/12/29 05:48:02;;;;;;;216.05;132.70;;;7.00;76.90;;;;;;5063110;28;20392;-81
2021/12/29 05:50:31;;;;;;;257.77;153.77;;;7.00;95.30;;;;;;5063880;28;20052;-81
2021/12/29 05:53:00;;;;;;;249.30;150.60;;;7.00;99.90;;;;;;5073680;28;20048;-82
2021/12/29 05:55:35;;;;;;;264.23;161.40;;;7.00;99.90;;;;;;5100273;28;20053;-81
2021/12/29 05:58:03;;;;;;;258.27;155.48;;;6.90;1.00;;;;;;5084236;28;20086;-81
2021/12/29 06:00:32;;;;;;;255.80;151.00;;;6.80;1.00;;;;;;5100912;28;20108;-83
2021/12/29 06:03:00;;;;;;;221.25;138.50;;;6.80;99.90;;;;;;5100938;28;20050;-82
2021/12/29 06:05:27;;;;;;;224.02;140.25;;;6.80;1.00;;;;;;5100642;28;20055;-83
2021/12/29 06:07:55;;;;;;;263.10;162.95;;;6.80;1.00;;;;;;5095437;28;20051;-83
2021/12/29 06:10:23;;;;;;;269.15;168.45;;;6.80;99.90;;;;;;5092542;28;20048;-82
2021/12/29 06:12:52;;;;;;;254.55;156.70;;;6.70;99.90;;;;;;5098995;28;20051;-80
2021/12/29 06:15:19;;;;;;;265.17;164.38;;;6.70;99.90;;;;;;5101419;28;20128;-82
2021/12/29 06:17:47;;;;;;;250.55;157.48;;;6.70;1.00;;;;;;5103379;28;20044;-82
2021/12/29 06:20:14;;;;;;;234.60;145.30;;;6.70;1.00;;;;;;5102152;28;20047;-80
2021/12/29 06:22:46;;;;;;;223.00;139.30;;;6.70;1.00;;;;;;5099071;28;20099;-80
2021/12/29 06:25:16;;;;;;;215.80;134.35;;;6.70;1.00;;;;;;5099070;28;20490;-82
2021/12/29 06:27:44;;;;;;;207.05;129.15;;;6.80;1.00;;;;;;5092856;28;20047;-82
2021/12/29 06:30:16;;;;;;;223.98;138.80;;;6.80;1.00;;;;;;5089275;28;20044;-83
2021/12/29 06:32:45;;;;;;;220.30;136.38;;;6.80;1.00;;;;;;5100725;28;20039;-83
2021/12/29 06:35:14;;;;;;;228.27;139.88;;;6.80;1.00;;;;;;5100350;28;20044;-83
2021/12/29 06:37:41;;;;;;;233.85;145.50;;;6.80;1.00;;;;;;5100424;28;20043;-84
2021/12/29 06:40:10;;;;;;;238.05;148.93;;;6.90;1.00;;;;;;5082790;28;20074;-83
2021/12/29 06:42:38;;;;;;;275.25;177.85;;;7.00;99.90;;;;;;5081924;28;20407;-82
2021/12/29 06:45:06;;;;;;;279.10;190.38;;;7.00;99.90;;;;;;5088932;28;20071;-83
2021/12/29 06:47:36;;;;;;;277.80;190.30;;;7.00;58.80;;;;;;5098909;28;20044;-83
2021/12/29 06:50:04;;;;;;;237.45;149.35;;;7.00;1.00;;;;;;5100914;28;20123;-83
2021/12/29 06:52:32;;;;;;;235.90;145.93;;;7.10;1.00;;;;;;5088437;28;20076;-82
2021/12/29 06:54:59;;;;;;;218.15;138.40;;;7.10;1.00;;;;;;5105499;28;20071;-84
2021/12/29 06:57:27;;;;;;;220.18;140.50;;;7.10;1.00;;;;;;5102364;28;20059;-83
2021/12/29 06:59:54;;;;;;;224.57;140.45;;;7.20;1.00;;;;;;5091870;28;20128;-82
2021/12/29 07:02:22;;;;;;;229.07;145.68;;;7.20;1.00;;;;;;5096778;28;20091;-82
2021/12/29 07:04:51;;;;;;;223.07;142.00;;;7.30;1.00;;;;;;5101492;28;20044;-82
2021/12/29 07:07:18;;;;;;;243.20;154.38;;;7.30;1.00;;;;;;5102114;28;20058;-82
2021/12/29 07:09:45;;;;;;;285.85;187.65;;;7.40;1.00;;;;;;5089191;28;20125;-81
2021/12/29 07:12:14;;;;;;;286.88;186.88;;;7.40;5.40;;;;;;5079182;28;20048;-82
2021/12/29 07:14:42;;;;;;;304.83;197.82;;;7.40;1.00;;;;;;5103346;28;20056;-84
2021/12/29 07:17:09;;;;;;;394.73;285.02;;;7.50;1.00;;;;;;5101952;28;20052;-84
2021/12/29 07:19:37;;;;;;;446.00;334.30;;;7.50;1.00;;;;;;5101557;28;20040;-83
2021/12/29 07:22:07;;;;;;;470.80;338.95;;;7.60;99.90;;;;;;5089571;28;20067;-81
2021/12/29 07:24:35;;;;;;;467.70;335.90;;;7.60;1.00;;;;;;5079019;28;20047;-82
2021/12/29 07:27:03;;;;;;;452.33;304.92;;;7.70;1.00;;;;;;5084860;28;20120;-82
2021/12/29 07:29:31;;;;;;;392.48;257.75;;;7.80;1.00;;;;;;5096497;28;20113;-83
2021/12/29 07:32:01;;;;;;;356.20;241.77;;;7.70;99.90;;;;;;5084896;28;20138;-83
2021/12/29 07:34:29;;;;;;;354.88;234.35;;;7.80;92.90;;;;;;5092029;28;20070;-83
2021/12/29 07:36:56;;;;;;;357.92;244.65;;;7.80;1.00;;;;;;5088006;28;20052;-81
2021/12/29 07:39:25;;;;;;;386.55;261.23;;;7.80;1.00;;;;;;5105374;28;20036;-82
2021/12/29 07:41:53;;;;;;;386.55;258.85;;;7.80;1.00;;;;;;5106051;28;20115;-82
2021/12/29 07:44:28;;;;;;;391.77;264.27;;;7.80;1.00;;;;;;5087555;28;20044;-83
2021/12/29 07:46:58;;;;;;;368.15;250.18;;;7.80;1.00;;;;;;5087349;28;20041;-81
2021/12/29 07:49:27;;;;;;;346.00;229.98;;;7.80;1.00;;;;;;5101010;28;20047;-79
2021/12/29 07:51:55;;;;;;;344.95;228.75;;;7.90;1.00;;;;;;5084322;28;20083;-81
2021/12/29 07:54:23;;;;;;;315.70;208.55;;;8.00;99.90;;;;;;5085360;28;20045;-84
2021/12/29 07:56:52;;;;;;;320.70;206.80;;;8.00;99.90;;;;;;5068608;28;20047;-81
2021/12/29 07:59:20;;;;;;;327.02;209.38;;;8.00;1.00;;;;;;5080059;28;20048;-84
2021/12/29 08:01:48;;;;;;;299.35;193.82;;;8.00;99.90;;;;;;5064757;28;20044;-81
2021/12/29 08:04:16;;;;;;;265.33;170.43;;;8.00;25.00;;;;;;5083007;28;20079;-83
2021/12/29 08:06:45;;;;;;;261.15;170.48;;;8.10;1.00;;;;;;5090161;28;20036;-83
2021/12/29 08:09:12;;;;;;;279.27;180.77;;;8.10;1.00;;;;;;5079163;28;20128;-83
2021/12/29 08:11:41;;;;;;;289.55;191.55;;;8.10;1.00;;;;;;5076429;28;20127;-84
2021/12/29 08:14:10;;;;;;;251.57;164.20;;;8.30;1.00;;;;;;5098127;28;20490;-84
2021/12/29 08:16:38;;;;;;;253.77;163.05;;;8.40;1.00;;;;;;5078544;28;20043;-83
2021/12/29 08:19:06;;;;;;;259.45;167.27;;;8.60;1.00;;;;;;5065280;28;20094;-84
2021/12/29 08:21:34;;;;;;;266.42;173.70;;;8.80;99.90;;;;;;5097710;28;20036;-83
2021/12/29 08:24:01;;;;;;;310.52;208.93;;;8.90;99.90;;;;;;5089224;28;20075;-82
2021/12/29 08:26:29;;;;;;;317.85;215.13;;;8.90;1.00;;;;;;5095788;28;20096;-81
2021/12/29 08:28:58;;;;;;;321.23;221.65;;;8.80;1.00;;;;;;5114140;28;20067;-80
2021/12/29 08:31:27;;;;;;;346.58;231.88;;;8.80;1.00;;;;;;5098044;28;20127;-84
2021/12/29 08:33:55;;;;;;;350.88;235.73;;;8.80;1.00;;;;;;5075146;28;20052;-81
2021/12/29 08:36:23;;;;;;;330.67;221.73;;;8.80;52.00;;;;;;5090610;28;20517;-84
2021/12/29 08:38:50;;;;;;;299.40;201.43;;;8.90;1.00;;;;;;5095884;28;20439;-84
2021/12/29 08:41:18;;;;;;;286.20;193.63;;;8.90;1.00;;;;;;5098471;28;20099;-82
2021/12/29 08:43:48;;;;;;;325.88;212.98;;;8.90;62.70;;;;;;5100106;28;20040;-80
2021/12/29 08:46:15;;;;;;;349.95;232.32;;;8.90;87.70;;;;;;5096571;28;20051;-83
2021/12/29 08:48:45;;;;;;;342.15;229.98;;;9.00;65.90;;;;;;5078800;28;20044;-86
2021/12/29 08:51:13;;;;;;;354.33;233.30;;;9.00;1.00;;;;;;5081318;28;20066;-84
2021/12/29 08:53:40;;;;;;;338.15;222.73;;;9.00;1.00;;;;;;5078367;28;20044;-85
2021/12/29 08:56:08;;;;;;;380.17;246.10;;;9.00;1.00;;;;;;5078196;28;20045;-85
2021/12/29 08:58:35;;;;;;;343.98;235.63;;;9.10;1.00;;;;;;5077534;28;20047;-85
2021/12/29 09:01:04;;;;;;;321.00;211.32;;;9.00;1.00;;;;;;5077140;28;20041;-85
2021/12/29 09:03:31;;;;;;;235.88;146.57;;;9.10;1.00;;;;;;5076097;28;20064;-85
2021/12/29 09:06:00;;;;;;;192.85;124.25;;;9.10;1.00;;;;;;5093778;28;20063;-83
2021/12/29 09:08:28;;;;;;;193.40;121.68;;;9.00;1.00;;;;;;5098073;28;20059;-86
2021/12/29 09:10:55;;;;;;;201.00;131.05;;;9.10;1.00;;;;;;5098065;28;20058;-81
2021/12/29 09:13:23;;;;;;;193.27;123.97;;;9.40;1.00;;;;;;5097741;28;20144;-85
2021/12/29 09:15:53;;;;;;;182.13;115.75;;;9.70;1.00;;;;;;5097379;28;20048;-83
2021/12/29 09:18:21;;;;;;;167.60;112.90;;;9.90;1.00;;;;;;5097502;28;20120;-82
2021/12/29 09:20:49;;;;;;;160.65;104.72;;;10.10;1.00;;;;;;5097152;28;20110;-84
2021/12/29 09:23:18;;;;;;;156.40;102.75;;;10.40;99.90;;;;;;5098462;28;20123;-83
2021/12/29 09:25:48;;;;;;;138.93;89.07;;;10.60;99.90;;;;;;5075192;28;20036;-83
2021/12/29 09:28:19;;;;;;;119.05;80.22;;;10.70;99.90;;;;;;5098257;28;20107;-84
2021/12/29 09:30:51;;;;;;;117.50;75.30;;;11.00;38.20;;;;;;5080114;28;20044;-84
2021/12/29 09:33:19;;;;;;;132.30;83.55;;;11.20;1.00;;;;;;5084943;28;20033;-82
2021/12/29 09:35:48;;;;;;;95.53;65.13;;;11.30;1.00;;;;;;5079468;28;20049;-82
2021/12/29 09:38:18;;;;;;;97.20;65.53;;;11.20;1.00;;;;;;5098590;28;20065;-84
2021/12/29 09:40:47;;;;;;;105.15;72.28;;;10.90;1.00;;;;;;5100568;28;20108;-83
2021/12/29 09:43:17;;;;;;;86.20;56.53;;;11.20;1.00;;;;;;5098706;28;20486;-84
2021/12/29 09:45:46;;;;;;;82.97;56.10;;;11.30;1.00;;;;;;5099357;28;20070;-83
2021/12/29 09:48:15;;;;;;;90.40;60.20;;;11.40;1.00;;;;;;5101109;28;20062;-84
2021/12/29 09:50:43;;;;;;;87.32;60.60;;;11.50;1.00;;;;;;5102046;28;20028;-84
2021/12/29 09:53:11;;;;;;;84.35;55.65;;;11.60;1.00;;;;;;5093091;28;20075;-85
2021/12/29 09:55:41;;;;;;;86.80;58.00;;;11.60;1.00;;;;;;5091373;28;20064;-84
2021/12/29 09:58:09;;;;;;;82.18;58.75;;;11.50;1.00;;;;;;5095649;28;20484;-83
2021/12/29 10:00:40;;;;;;;89.55;62.03;;;11.40;1.00;;;;;;5083615;28;20407;-81
2021/12/29 10:03:10;;;;;;;89.60;61.28;;;11.40;1.00;;;;;;5086934;28;20063;-83
2021/12/29 10:05:39;;;;;;;100.57;65.03;;;11.20;1.00;;;;;;5083327;28;20048;-84
2021/12/29 10:08:09;;;;;;;106.43;74.63;;;11.00;1.00;;;;;;5067454;28;20066;-84
2021/12/29 10:10:40;;;;;;;127.80;85.93;;;10.70;33.40;;;;;;5084971;28;20052;-84
2021/12/29 10:13:09;;;;;;;125.47;82.13;;;10.70;47.30;;;;;;5086179;28;20045;-84
2021/12/29 10:15:40;;;;;;;126.60;83.63;;;10.60;99.90;;;;;;5086734;28;20044;-84
2021/12/29 10:18:09;;;;;;;125.97;81.82;;;10.50;99.90;;;;;;5086333;28;20105;-85
2021/12/29 10:20:46;;;;;;;133.18;87.70;;;10.60;99.90;;;;;;5086674;28;20036;-84
2021/12/29 10:23:21;;;;;;;123.15;81.53;;;10.50;99.90;;;;;;5086958;28;20131;-84
2021/12/29 10:25:51;;;;;;;124.15;80.25;;;10.40;99.90;;;;;;5075631;28;20040;-83
2021/12/29 10:28:28;;;;;;;120.80;79.53;;;10.30;99.90;;;;;;5081415;28;20051;-82
2021/12/29 10:31:01;;;;;;;115.25;76.15;;;10.20;99.90;;;;;;5097194;28;20496;-83
2021/12/29 10:33:33;;;;;;;142.95;85.50;;;10.10;99.90;;;;;;5094893;28;20079;-84
2021/12/29 10:36:12;;;;;;;111.45;74.28;;;10.20;1.00;;;;;;5090502;28;20059;-84
2021/12/29 10:38:39;;;;;;;99.90;69.07;;;10.30;99.90;;;;;;5094479;28;20060;-81
2021/12/29 10:41:09;;;;;;;94.95;64.45;;;10.60;99.90;;;;;;5082366;28;20120;-82
2021/12/29 10:43:39;;;;;;;102.28;66.65;;;10.90;99.90;;;;;;5063494;28;20044;-81
2021/12/29 10:46:19;;;;;;;99.07;67.18;;;11.30;99.90;;;;;;5064150;28;20044;-83
2021/12/29 10:48:48;;;;;;;99.93;67.00;;;11.60;1.00;;;;;;5082448;28;20071;-82
2021/12/29 10:51:16;;;;;;;97.03;65.53;;;11.70;1.00;;;;;;5063847;28;20389;-82
2021/12/29 10:53:47;;;;;;;94.50;64.57;;;11.60;1.00;;;;;;5089001;28;20070;-83
2021/12/29 10:56:24;;;;;;;102.82;66.20;;;11.60;1.00;;;;;;5094991;28;20052;-83
2021/12/29 10:58:53;;;;;;;91.65;63.33;;;11.70;1.00;;;;;;5065248;28;20074;-84
2021/12/29 11:01:22;;;;;;;88.88;58.17;;;11.80;1.00;;;;;;5083313;28;20049;-81
2021/12/29 11:03:52;;;;;;;79.75;55.03;;;11.70;1.00;;;;;;5064657;28;20049;-83
2021/12/29 11:06:25;;;;;;;80.60;55.60;;;11.80;1.00;;;;;;5082374;28;20048;-83
2021/12/29 11:08:55;;;;;;;77.72;52.95;;;11.80;1.00;;;;;;5083530;28;20045;-83
2021/12/29 11:11:33;;;;;;;71.68;50.88;;;11.70;1.00;;;;;;5065968;28;20131;-84
2021/12/29 11:14:08;;;;;;;76.22;51.22;;;11.80;1.00;;;;;;5084775;28;20040;-84
2021/12/29 11:16:36;;;;;;;76.50;49.70;;;11.80;1.00;;;;;;5086251;28;20072;-83
2021/12/29 11:19:04;;;;;;;68.45;45.03;;;11.80;1.00;;;;;;5084790;28;20064;-84
2021/12/29 11:21:35;;;;;;;66.30;42.78;;;11.90;1.00;;;;;;5088849;28;20123;-84
2021/12/29 11:24:13;;;;;;;57.35;40.72;;;12.00;1.00;;;;;;5091051;28;20112;-84
2021/12/29 11:26:43;;;;;;;57.47;37.60;;;11.80;1.00;;;;;;5088780;28;20060;-84
2021/12/29 11:29:13;;;;;;;46.45;30.85;;;11.80;1.00;;;;;;5083178;28;20068;-84
2021/12/29 11:31:43;;;;;;;51.38;32.75;;;11.80;1.00;;;;;;5083171;28;20044;-84
2021/12/29 11:34:20;;;;;;;61.95;39.13;;;11.70;1.00;;;;;;5083021;28;20131;-83
2021/12/29 11:37:04;;;;;;;73.60;44.15;;;11.40;1.00;;;;;;5083363;28;20045;-83
2021/12/29 11:39:34;;;;;;;67.50;41.22;;;11.30;1.00;;;;;;5082064;28;20135;-83
2021/12/29 11:42:03;;;;;;;60.38;41.92;;;11.20;1.00;;;;;;5082557;28;20067;-83
2021/12/29 11:44:31;;;;;;;70.57;44.45;;;11.00;1.00;;;;;;5100366;28;20127;-82
2021/12/29 11:46:59;;;;;;;68.32;44.35;;;11.00;1.00;;;;;;5102119;28;20066;-83
2021/12/29 11:49:29;;;;;;;67.00;42.55;;;11.00;1.00;;;;;;5102459;28;20068;-82
2021/12/29 11:52:03;;;;;;;71.53;45.25;;;11.10;1.00;;;;;;5099882;28;20083;-83
2021/12/29 11:54:37;;;;;;;59.75;40.83;;;11.20;1.00;;;;;;5104938;28;20036;-83
2021/12/29 11:57:15;;;;;;;58.55;39.00;;;11.30;1.00;;;;;;5090430;28;20052;-82
2021/12/29 11:59:42;;;;;;;57.28;38.13;;;11.40;1.00;;;;;;5115321;28;20035;-83
2021/12/29 12:02:10;;;;;;;59.90;40.92;;;11.40;1.00;;;;;;5107381;28;20433;-81
2021/12/29 12:04:38;;;;;;;66.15;42.92;;;11.40;1.00;;;;;;5070701;28;20643;-82
2021/12/29 12:07:23;;;;;;;63.28;41.70;;;11.40;1.00;;;;;;5083528;28;20574;-83
2021/12/29 12:09:57;;;;;;;73.50;45.70;;;11.40;1.00;;;;;;5078342;28;20068;-82
2021/12/29 12:12:35;;;;;;;74.18;48.50;;;11.50;1.00;;;;;;5097085;28;20052;-82
2021/12/29 12:15:07;;;;;;;71.63;47.17;;;11.60;1.00;;;;;;5088802;28;20040;-82
2021/12/29 12:17:35;;;;;;;76.75;50.13;;;11.60;1.00;;;;;;5105273;28;20071;-83
2021/12/29 12:20:08;;;;;;;78.68;50.72;;;11.80;1.00;;;;;;5095983;28;20044;-83
2021/12/29 12:22:44;;;;;;;77.20;50.53;;;11.80;1.00;;;;;;5090282;28;20092;-83
2021/12/29 12:25:19;;;;;;;85.63;51.90;;;11.80;1.00;;;;;;5094411;28;20040;-82
2021/12/29 12:27:50;;;;;;;80.82;52.75;;;11.90;1.00;;;;;;5103862;28;20075;-84
2021/12/29 12:30:20;;;;;;;90.63;56.03;;;11.80;1.00;;;;;;5091033;28;20049;-86
2021/12/29 12:32:50;;;;;;;87.47;55.70;;;11.70;1.00;;;;;;5102857;28;20055;-85
2021/12/29 12:35:29;;;;;;;87.18;57.90;;;11.80;1.00;;;;;;5114873;28;20042;-85
2021/12/29 12:37:57;;;;;;;89.57;59.33;;;11.80;1.00;;;;;;5099769;28;20040;-83
2021/12/29 12:40:29;;;;;;;91.28;58.63;;;12.10;1.00;;;;;;5112142;28;20067;-84
2021/12/29 12:43:10;;;;;;;100.35;64.18;;;12.10;1.00;;;;;;5091500;22;20048;-82